createdAt,value
2017-06-11T00:00:35.704Z,17.40
2017-06-11T00:03:09.961Z,17.30
2017-06-11T00:05:44.496Z,17.30
2017-06-11T00:08:18.395Z,17.40
2017-06-11T00:10:52.080Z,17.30
2017-06-11T00:13:26.007Z,17.30
2017-06-11T00:15:59.593Z,17.20
2017-06-11T00:18:33.557Z,17.10
2017-06-11T00:21:07.908Z,17.10
2017-06-11T00:23:42.776Z,17.10
2017-06-11T00:26:16.677Z,17.10
2017-06-11T00:28:50.596Z,17.10
2017-06-11T00:31:25.072Z,17.00
2017-06-11T00:34:00.296Z,17.00
2017-06-11T00:36:34.831Z,17.00
2017-06-11T00:39:09.016Z,16.90
2017-06-11T00:41:42.724Z,17.00
2017-06-11T00:44:17.320Z,17.00
2017-06-11T00:46:51.888Z,17.00
2017-06-11T00:49:26.044Z,16.90
2017-06-11T00:52:00.421Z,17.00
2017-06-11T00:54:35.101Z,16.90
2017-06-11T00:57:09.085Z,16.80
2017-06-11T00:59:43.648Z,16.80
2017-06-11T01:02:17.604Z,16.70
2017-06-11T01:04:52.565Z,16.70
2017-06-11T01:07:26.829Z,16.80
2017-06-11T01:10:00.537Z,16.80
2017-06-11T01:12:34.213Z,16.80
2017-06-11T01:15:08.117Z,16.80
2017-06-11T01:17:41.870Z,16.70
2017-06-11T01:20:16.352Z,16.70
2017-06-11T01:22:50.343Z,16.60
2017-06-11T01:25:24.955Z,16.60
2017-06-11T01:27:58.875Z,16.60
2017-06-11T01:30:32.671Z,16.70
2017-06-11T01:33:06.488Z,16.60
2017-06-11T01:35:40.416Z,16.60
2017-06-11T01:38:14.120Z,16.50
2017-06-11T01:40:48.884Z,16.50
2017-06-11T01:43:23.416Z,16.50
2017-06-11T01:45:58.445Z,16.40
2017-06-11T01:48:32.252Z,16.40
2017-06-11T01:51:06.134Z,16.40
2017-06-11T01:53:39.760Z,16.40
2017-06-11T01:56:13.409Z,16.40
2017-06-11T01:58:47.192Z,16.40
2017-06-11T02:01:21.053Z,16.30
2017-06-11T02:03:55.589Z,16.30
2017-06-11T02:06:29.469Z,16.30
2017-06-11T02:09:04.845Z,16.30
2017-06-11T02:11:39.049Z,16.30
2017-06-11T02:14:12.660Z,16.30
2017-06-11T02:16:46.445Z,16.20
2017-06-11T02:19:20.117Z,16.30
2017-06-11T02:21:54.837Z,16.30
2017-06-11T02:24:28.597Z,16.20
2017-06-11T02:27:03.258Z,16.10
2017-06-11T02:29:37.179Z,16.00
2017-06-11T02:32:10.908Z,16.00
2017-06-11T02:34:45.436Z,15.90
2017-06-11T02:37:19.145Z,15.90
2017-06-11T02:39:53.666Z,15.90
2017-06-11T02:42:27.437Z,15.90
2017-06-11T02:45:01.054Z,16.00
2017-06-11T02:47:34.984Z,16.00
2017-06-11T02:50:09.536Z,16.00
2017-06-11T02:52:43.524Z,15.90
2017-06-11T02:55:18.060Z,15.90
2017-06-11T02:57:51.936Z,15.90
2017-06-11T03:00:26.517Z,15.90
2017-06-11T03:03:02.014Z,15.80
2017-06-11T03:05:35.624Z,15.90
2017-06-11T03:08:10.187Z,15.70
2017-06-11T03:10:43.908Z,15.70
2017-06-11T03:13:17.699Z,15.70
2017-06-11T03:15:52.100Z,15.70
2017-06-11T03:18:26.966Z,15.70
2017-06-11T03:21:00.974Z,15.60
2017-06-11T03:23:34.689Z,15.60
2017-06-11T03:26:08.273Z,15.70
2017-06-11T03:28:43.713Z,15.70
2017-06-11T03:31:17.536Z,15.60
2017-06-11T03:33:51.229Z,15.60
2017-06-11T03:36:24.941Z,15.60
2017-06-11T03:38:58.680Z,15.60
2017-06-11T03:41:33.943Z,15.60
2017-06-11T03:44:07.944Z,15.50
2017-06-11T03:46:42.364Z,15.60
2017-06-11T03:49:16.552Z,15.60
2017-06-11T03:51:50.259Z,15.60
2017-06-11T03:54:24.837Z,15.70
2017-06-11T03:56:58.565Z,15.60
2017-06-11T03:59:32.205Z,15.70
2017-06-11T04:02:05.950Z,15.70
2017-06-11T04:04:40.695Z,15.60
2017-06-11T04:07:14.605Z,15.50
2017-06-11T04:09:49.125Z,15.70
2017-06-11T04:12:22.986Z,15.60
2017-06-11T04:14:56.632Z,15.60
2017-06-11T04:17:31.118Z,15.50
2017-06-11T04:20:05.029Z,15.50
2017-06-11T04:22:40.264Z,15.50
2017-06-11T04:25:14.356Z,15.50
2017-06-11T04:27:48.929Z,15.50
2017-06-11T04:30:22.644Z,15.70
2017-06-11T04:32:57.024Z,15.80
2017-06-11T04:35:30.929Z,15.80
2017-06-11T04:38:05.452Z,15.90
2017-06-11T04:40:39.453Z,15.90
2017-06-11T04:43:13.093Z,16.10
2017-06-11T04:45:47.764Z,16.10
2017-06-11T04:48:22.220Z,16.20
2017-06-11T04:50:57.184Z,16.30
2017-06-11T04:53:30.956Z,16.20
2017-06-11T04:56:04.717Z,16.20
2017-06-11T04:58:39.268Z,16.30
2017-06-11T05:01:13.178Z,16.30
2017-06-11T05:03:46.869Z,16.30
2017-06-11T05:06:22.269Z,16.50
2017-06-11T05:08:56.968Z,16.50
2017-06-11T05:11:31.065Z,16.50
2017-06-11T05:14:04.780Z,16.60
2017-06-11T05:16:38.481Z,16.60
2017-06-11T05:19:12.909Z,16.70
2017-06-11T05:21:47.662Z,16.80
2017-06-11T05:24:21.472Z,16.80
2017-06-11T05:26:56.102Z,16.90
2017-06-11T05:29:29.904Z,16.80
2017-06-11T05:32:03.620Z,16.90
2017-06-11T05:34:38.003Z,17.00
2017-06-11T05:37:12.079Z,17.00
2017-06-11T05:39:46.652Z,17.20
2017-06-11T05:42:20.549Z,17.10
2017-06-11T05:44:54.168Z,17.30
2017-06-11T05:47:27.926Z,17.30
2017-06-11T05:50:01.740Z,17.40
2017-06-11T05:52:35.466Z,17.50
2017-06-11T05:55:09.257Z,17.60
2017-06-11T05:57:43.172Z,17.60
2017-06-11T06:00:18.608Z,17.80
2017-06-11T06:02:53.544Z,17.80
2017-06-11T06:05:27.179Z,17.90
2017-06-11T06:08:00.948Z,18.00
2017-06-11T06:10:34.732Z,18.00
2017-06-11T06:13:08.563Z,18.10
2017-06-11T06:15:42.313Z,18.10
2017-06-11T06:18:16.380Z,18.30
2017-06-11T06:20:50.016Z,18.30
2017-06-11T06:23:24.747Z,18.60
2017-06-11T06:25:58.649Z,18.50
2017-06-11T06:28:32.516Z,18.70
2017-06-11T06:31:06.209Z,18.80
2017-06-11T06:33:40.982Z,18.80
2017-06-11T06:36:15.478Z,18.90
2017-06-11T06:38:49.659Z,18.80
2017-06-11T06:41:23.388Z,19.00
2017-06-11T06:43:58.006Z,19.10
2017-06-11T06:46:32.524Z,19.10
2017-06-11T06:49:06.345Z,19.10
2017-06-11T06:51:40.124Z,19.20
2017-06-11T06:54:13.931Z,19.30
2017-06-11T06:56:48.380Z,19.30
2017-06-11T06:59:22.167Z,19.20
2017-06-11T07:01:56.609Z,19.40
2017-06-11T07:04:30.689Z,19.40
2017-06-11T07:07:05.145Z,19.50
2017-06-11T07:09:39.924Z,19.60
2017-06-11T07:12:13.856Z,19.50
2017-06-11T07:14:47.652Z,19.70
2017-06-11T07:17:21.408Z,19.80
2017-06-11T07:19:56.425Z,19.90
2017-06-11T07:22:31.657Z,19.90
2017-06-11T07:25:06.652Z,20.00
2017-06-11T07:27:41.212Z,20.10
2017-06-11T07:30:15.188Z,20.10
2017-06-11T07:32:49.732Z,20.20
2017-06-11T07:35:23.632Z,20.20
2017-06-11T07:37:57.444Z,20.30
2017-06-11T07:40:32.020Z,20.40
2017-06-11T07:43:06.068Z,20.40
2017-06-11T07:45:39.929Z,20.50
2017-06-11T07:48:14.340Z,20.60
2017-06-11T07:50:49.373Z,20.70
2017-06-11T07:53:23.164Z,20.60
2017-06-11T07:55:57.221Z,20.70
2017-06-11T07:58:31.606Z,20.90
2017-06-11T08:01:05.701Z,20.80
2017-06-11T08:03:40.236Z,21.00
2017-06-11T08:06:15.037Z,21.10
2017-06-11T08:08:49.693Z,21.10
2017-06-11T08:11:23.628Z,21.00
2017-06-11T08:13:58.258Z,21.20
2017-06-11T08:16:32.150Z,21.20
2017-06-11T08:19:06.653Z,21.30
2017-06-11T08:21:41.634Z,21.30
2017-06-11T08:24:16.212Z,21.40
2017-06-11T08:26:50.464Z,21.30
2017-06-11T08:29:24.178Z,21.50
2017-06-11T08:31:58.982Z,21.60
2017-06-11T08:34:32.740Z,21.50
2017-06-11T08:37:06.657Z,21.60
2017-06-11T08:39:41.217Z,21.70
2017-06-11T08:42:15.849Z,21.80
2017-06-11T08:44:49.781Z,21.70
2017-06-11T08:47:23.785Z,21.90
2017-06-11T08:49:58.352Z,21.90
2017-06-11T08:52:32.332Z,22.10
2017-06-11T08:55:06.908Z,22.20
2017-06-11T08:57:40.808Z,22.20
2017-06-11T09:00:14.668Z,22.20
2017-06-11T09:02:50.301Z,22.30
2017-06-11T09:05:23.925Z,22.30
2017-06-11T09:07:58.491Z,22.40
2017-06-11T09:10:32.277Z,22.40
2017-06-11T09:13:06.081Z,22.40
2017-06-11T09:15:40.625Z,22.50
2017-06-11T09:18:14.620Z,22.40
2017-06-11T09:20:48.292Z,22.70
2017-06-11T09:23:22.053Z,22.60
2017-06-11T09:25:56.467Z,22.60
2017-06-11T09:28:31.556Z,22.60
2017-06-11T09:31:05.514Z,22.60
2017-06-11T09:33:41.193Z,22.70
2017-06-11T09:36:15.783Z,22.70
2017-06-11T09:38:49.872Z,22.70
2017-06-11T09:41:23.593Z,22.70
2017-06-11T09:43:57.404Z,22.80
2017-06-11T09:46:32.080Z,22.80
2017-06-11T09:49:05.949Z,22.80
2017-06-11T09:51:39.586Z,22.80
2017-06-11T09:54:14.221Z,22.80
2017-06-11T09:56:48.143Z,22.70
2017-06-11T09:59:21.901Z,22.90
2017-06-11T10:01:55.670Z,22.80
2017-06-11T10:04:30.684Z,22.80
2017-06-11T10:07:05.140Z,22.90
2017-06-11T10:09:39.254Z,22.80
2017-06-11T10:12:13.698Z,22.90
2017-06-11T10:14:47.760Z,22.80
2017-06-11T10:17:22.104Z,23.10
2017-06-11T10:19:56.584Z,23.00
2017-06-11T10:22:31.561Z,23.00
2017-06-11T10:25:05.743Z,23.00
2017-06-11T10:27:40.353Z,23.00
2017-06-11T10:30:14.101Z,23.00
2017-06-11T10:32:47.788Z,23.10
2017-06-11T10:35:21.701Z,23.00
2017-06-11T10:37:56.237Z,23.10
2017-06-11T10:40:31.165Z,23.10
2017-06-11T10:43:05.026Z,23.00
2017-06-11T10:45:39.556Z,23.10
2017-06-11T10:48:13.553Z,23.10
2017-06-11T10:50:48.392Z,23.20
2017-06-11T10:53:23.077Z,23.20
2017-06-11T10:55:57.939Z,23.30
2017-06-11T10:58:31.836Z,23.20
2017-06-11T11:01:06.276Z,23.50
2017-06-11T11:03:40.276Z,23.40
2017-06-11T11:06:14.064Z,23.40
2017-06-11T11:08:47.784Z,23.40
2017-06-11T11:11:21.640Z,23.40
2017-06-11T11:13:55.340Z,23.40
2017-06-11T11:16:29.233Z,23.40
2017-06-11T11:19:02.920Z,23.30
2017-06-11T11:21:36.792Z,23.40
2017-06-11T11:24:10.628Z,23.30
2017-06-11T11:26:44.496Z,23.30
2017-06-11T11:29:18.240Z,23.40
2017-06-11T11:31:52.856Z,23.40
2017-06-11T11:34:26.764Z,23.30
2017-06-11T11:37:00.663Z,23.40
2017-06-11T11:39:34.269Z,23.50
2017-06-11T11:42:08.784Z,23.50
2017-06-11T11:44:43.491Z,23.50
2017-06-11T11:47:17.688Z,23.50
2017-06-11T11:49:52.208Z,23.50
2017-06-11T11:52:26.101Z,23.50
2017-06-11T11:55:00.661Z,23.70
2017-06-11T11:57:34.720Z,23.60
2017-06-11T12:00:09.115Z,23.60
2017-06-11T12:02:44.109Z,23.50
2017-06-11T12:05:17.808Z,23.60
2017-06-11T12:07:51.514Z,23.60
2017-06-11T12:10:26.053Z,23.50
2017-06-11T12:13:00.131Z,23.50
2017-06-11T12:15:33.752Z,23.70
2017-06-11T12:18:07.816Z,23.70
2017-06-11T12:20:42.360Z,23.70
2017-06-11T12:23:16.168Z,23.70
2017-06-11T12:25:49.808Z,23.80
2017-06-11T12:28:24.660Z,24.10
2017-06-11T12:30:58.440Z,24.00
2017-06-11T12:33:33.200Z,24.20
2017-06-11T12:36:06.921Z,24.10
2017-06-11T12:38:41.660Z,24.00
2017-06-11T12:41:15.552Z,24.00
2017-06-11T12:43:49.419Z,23.90
2017-06-11T12:46:23.157Z,23.90
2017-06-11T12:48:57.116Z,23.90
2017-06-11T12:51:31.618Z,23.70
2017-06-11T12:54:05.449Z,23.80
2017-06-11T12:56:40.093Z,24.20
2017-06-11T12:59:14.069Z,24.10
2017-06-11T13:01:47.651Z,24.40
2017-06-11T13:04:22.380Z,25.00
2017-06-11T13:06:56.948Z,25.40
2017-06-11T13:09:30.946Z,25.30
2017-06-11T13:12:05.380Z,25.50
2017-06-11T13:14:39.541Z,25.50
2017-06-11T13:17:13.398Z,26.00
2017-06-11T13:19:48.084Z,26.10
2017-06-11T13:22:21.832Z,26.00
2017-06-11T13:24:56.393Z,26.50
2017-06-11T13:27:31.076Z,26.70
2017-06-11T13:30:05.953Z,27.00
2017-06-11T13:32:39.868Z,26.90
2017-06-11T13:35:15.692Z,27.20
2017-06-11T13:37:49.528Z,27.10
2017-06-11T13:40:24.056Z,27.70
2017-06-11T13:42:58.064Z,27.60
2017-06-11T13:45:31.969Z,27.90
2017-06-11T13:48:06.513Z,28.20
2017-06-11T13:50:40.376Z,28.30
2017-06-11T13:53:14.093Z,28.30
2017-06-11T13:55:47.868Z,28.50
2017-06-11T13:58:21.600Z,28.70
2017-06-11T14:00:55.548Z,28.90
2017-06-11T14:03:29.165Z,29.20
2017-06-11T14:06:03.064Z,29.50
2017-06-11T14:08:36.668Z,29.50
2017-06-11T14:11:10.590Z,29.40
2017-06-11T14:13:44.308Z,29.70
2017-06-11T14:16:18.068Z,29.70
2017-06-11T14:18:51.856Z,30.00
2017-06-11T14:21:31.448Z,29.80
2017-06-11T14:24:06.180Z,30.20
2017-06-11T14:26:40.120Z,30.10
2017-06-11T14:29:14.097Z,30.30
2017-06-11T14:31:48.503Z,30.50
2017-06-11T14:34:22.501Z,31.10
2017-06-11T14:36:56.381Z,31.30
2017-06-11T14:39:31.676Z,31.30
2017-06-11T14:42:05.756Z,31.30
2017-06-11T14:44:39.541Z,31.40
2017-06-11T14:47:14.364Z,31.50
2017-06-11T14:49:48.178Z,31.40
2017-06-11T14:52:22.691Z,30.80
2017-06-11T14:54:56.685Z,30.80
2017-06-11T14:57:30.613Z,30.50
2017-06-11T15:00:04.284Z,30.50
2017-06-11T15:02:39.250Z,31.20
2017-06-11T15:05:12.896Z,31.30
2017-06-11T15:07:46.696Z,31.30
2017-06-11T15:10:21.245Z,31.00
2017-06-11T15:12:55.345Z,30.90
2017-06-11T15:15:28.980Z,30.70
2017-06-11T15:18:02.816Z,30.50
2017-06-11T15:20:38.715Z,30.30
2017-06-11T15:23:14.585Z,30.20
2017-06-11T15:25:48.447Z,30.50
2017-06-11T15:28:22.608Z,30.50
2017-06-11T15:30:57.052Z,31.10
2017-06-11T15:33:30.789Z,31.30
2017-06-11T15:36:04.533Z,32.00
2017-06-11T15:38:38.431Z,32.20
2017-06-11T15:41:12.856Z,33.40
2017-06-11T15:43:47.513Z,33.80
2017-06-11T15:46:21.327Z,33.80
2017-06-11T15:48:56.041Z,33.80
2017-06-11T15:51:29.953Z,33.80
2017-06-11T15:54:03.695Z,33.60
2017-06-11T15:56:38.053Z,33.20
2017-06-11T15:59:12.096Z,33.10
2017-06-11T16:01:46.585Z,32.40
2017-06-11T16:04:21.438Z,32.30
2017-06-11T16:06:55.257Z,32.00
2017-06-11T16:09:30.593Z,30.80
2017-06-11T16:12:04.469Z,30.80
2017-06-11T16:14:39.048Z,30.40
2017-06-11T16:17:13.608Z,30.50
2017-06-11T16:19:47.597Z,30.50
2017-06-11T16:22:21.323Z,31.30
2017-06-11T16:24:56.108Z,31.90
2017-06-11T16:27:29.933Z,31.80
2017-06-11T16:30:03.728Z,31.80
2017-06-11T16:32:37.409Z,31.50
2017-06-11T16:35:12.828Z,30.70
2017-06-11T16:37:47.334Z,30.40
2017-06-11T16:40:22.132Z,29.90
2017-06-11T16:42:56.001Z,29.80
2017-06-11T16:45:30.560Z,29.60
2017-06-11T16:48:05.220Z,29.60
2017-06-11T16:50:39.300Z,29.50
2017-06-11T16:53:12.968Z,29.50
2017-06-11T16:55:47.597Z,29.20
2017-06-11T16:58:22.284Z,29.00
2017-06-11T17:00:57.224Z,28.80
2017-06-11T17:03:31.747Z,28.70
2017-06-11T17:06:06.669Z,28.60
2017-06-11T17:08:40.356Z,28.60
2017-06-11T17:11:14.275Z,28.50
2017-06-11T17:13:47.942Z,28.40
2017-06-11T17:16:21.761Z,28.40
2017-06-11T17:18:55.372Z,28.40
2017-06-11T17:21:30.227Z,28.30
2017-06-11T17:24:04.548Z,28.30
2017-06-11T17:26:38.672Z,28.20
2017-06-11T17:29:12.312Z,28.30
2017-06-11T17:31:46.547Z,28.30
2017-06-11T17:34:21.146Z,28.30
2017-06-11T17:36:55.878Z,28.30
2017-06-11T17:39:30.468Z,28.40
2017-06-11T17:42:05.245Z,28.40
2017-06-11T17:44:39.130Z,28.30
2017-06-11T17:47:13.651Z,28.50
2017-06-11T17:49:47.670Z,28.50
2017-06-11T17:52:21.564Z,28.50
2017-06-11T17:54:55.177Z,28.50
2017-06-11T17:57:29.955Z,28.30
2017-06-11T18:00:04.594Z,28.20
2017-06-11T18:02:39.769Z,28.20
2017-06-11T18:05:13.420Z,28.10
2017-06-11T18:07:47.328Z,28.10
2017-06-11T18:10:21.926Z,28.00
2017-06-11T18:12:56.508Z,27.80
2017-06-11T18:15:30.124Z,27.70
2017-06-11T18:18:04.636Z,27.50
2017-06-11T18:20:38.458Z,27.40
2017-06-11T18:23:13.160Z,27.30
2017-06-11T18:25:46.888Z,27.30
2017-06-11T18:28:20.684Z,27.20
2017-06-11T18:30:54.273Z,27.10
2017-06-11T18:33:28.826Z,26.80
2017-06-11T18:36:02.672Z,26.80
2017-06-11T18:38:36.445Z,26.80
2017-06-11T18:41:10.033Z,26.60
2017-06-11T18:43:44.781Z,26.50
2017-06-11T18:46:18.612Z,26.50
2017-06-11T18:48:53.244Z,26.40
2017-06-11T18:51:26.988Z,26.30
2017-06-11T18:54:00.776Z,26.30
2017-06-11T18:56:35.430Z,26.20
2017-06-11T18:59:10.074Z,26.20
2017-06-11T19:01:44.001Z,26.10
2017-06-11T19:04:19.589Z,26.10
2017-06-11T19:06:53.332Z,26.00
2017-06-11T19:09:26.960Z,25.90
2017-06-11T19:12:01.433Z,25.80
2017-06-11T19:14:35.541Z,25.70
2017-06-11T19:17:10.652Z,25.70
2017-06-11T19:19:44.646Z,25.60
2017-06-11T19:22:19.033Z,25.60
2017-06-11T19:24:53.608Z,25.50
2017-06-11T19:27:27.325Z,25.50
2017-06-11T19:30:01.226Z,25.40
2017-06-11T19:32:36.348Z,25.40
2017-06-11T19:35:11.373Z,25.30
2017-06-11T19:37:45.076Z,25.30
2017-06-11T19:40:18.813Z,25.30
2017-06-11T19:42:53.495Z,25.20
2017-06-11T19:45:27.265Z,25.10
2017-06-11T19:48:02.380Z,25.00
2017-06-11T19:50:36.384Z,25.00
2017-06-11T19:53:11.008Z,25.00
2017-06-11T19:55:45.439Z,24.90
2017-06-11T19:58:19.288Z,24.90
2017-06-11T20:00:53.245Z,24.90
2017-06-11T20:03:27.785Z,24.80
2017-06-11T20:06:03.205Z,24.80
2017-06-11T20:08:37.789Z,24.80
2017-06-11T20:11:12.716Z,24.80
2017-06-11T20:13:46.560Z,24.80
2017-06-11T20:16:21.336Z,24.80
2017-06-11T20:18:55.337Z,24.70
2017-06-11T20:21:29.916Z,24.70
2017-06-11T20:24:03.768Z,24.60
2017-06-11T20:26:38.356Z,24.70
2017-06-11T20:29:12.084Z,24.60
2017-06-11T20:31:46.586Z,24.60
2017-06-11T20:34:20.159Z,24.60
2017-06-11T20:36:53.915Z,24.60
2017-06-11T20:39:27.476Z,24.60
2017-06-11T20:42:01.230Z,24.60
2017-06-11T20:44:35.817Z,24.50
2017-06-11T20:47:09.912Z,24.50
2017-06-11T20:49:43.516Z,24.50
2017-06-11T20:52:17.320Z,24.50
2017-06-11T20:54:51.188Z,24.50
2017-06-11T20:57:24.872Z,24.50
2017-06-11T20:59:59.264Z,24.40
2017-06-11T21:02:34.263Z,24.50
2017-06-11T21:05:08.005Z,24.40
2017-06-11T21:07:41.864Z,24.40
2017-06-11T21:10:15.459Z,24.40
2017-06-11T21:12:50.208Z,24.30
2017-06-11T21:15:24.047Z,24.20
2017-06-11T21:17:57.888Z,24.20
2017-06-11T21:20:31.694Z,24.20
2017-06-11T21:23:06.218Z,24.20
2017-06-11T21:25:40.233Z,24.10
2017-06-11T21:28:14.202Z,24.20
2017-06-11T21:30:47.941Z,24.10
2017-06-11T21:33:23.786Z,24.00
2017-06-11T21:35:58.288Z,24.00
2017-06-11T21:38:32.367Z,23.90
2017-06-11T21:41:06.900Z,23.90
2017-06-11T21:43:40.673Z,23.90
2017-06-11T21:46:15.247Z,23.70
2017-06-11T21:48:49.440Z,23.70
2017-06-11T21:51:23.114Z,23.70
2017-06-11T21:53:57.740Z,23.60
2017-06-11T21:56:31.591Z,23.50
2017-06-11T21:59:05.280Z,23.50
2017-06-11T22:01:39.717Z,23.30
2017-06-11T22:04:15.707Z,23.30
2017-06-11T22:06:49.536Z,23.20
2017-06-11T22:09:24.157Z,23.20
2017-06-11T22:11:58.048Z,23.10
2017-06-11T22:14:31.825Z,23.10
2017-06-11T22:17:05.672Z,23.10
2017-06-11T22:19:39.508Z,23.00
2017-06-11T22:22:13.304Z,23.00
2017-06-11T22:24:47.123Z,23.00
2017-06-11T22:27:20.787Z,23.00
2017-06-11T22:29:54.633Z,23.00
2017-06-11T22:32:28.274Z,22.90
2017-06-11T22:35:03.085Z,22.90
2017-06-11T22:37:36.812Z,22.90
2017-06-11T22:40:10.561Z,22.90
2017-06-11T22:42:45.125Z,22.80
2017-06-11T22:45:19.132Z,22.80
2017-06-11T22:47:52.745Z,22.80
2017-06-11T22:50:26.527Z,22.80
2017-06-11T22:53:01.070Z,22.70
2017-06-11T22:55:35.124Z,22.60
2017-06-11T22:58:09.502Z,22.60
2017-06-11T23:00:43.676Z,22.60
2017-06-11T23:03:17.477Z,22.60
2017-06-11T23:05:52.392Z,22.60
2017-06-11T23:08:26.967Z,22.60
2017-06-11T23:11:00.601Z,22.60
2017-06-11T23:13:35.924Z,22.50
2017-06-11T23:16:10.081Z,22.50
2017-06-11T23:18:45.373Z,22.50
2017-06-11T23:21:20.455Z,22.40
2017-06-11T23:23:54.437Z,22.40
2017-06-11T23:26:29.312Z,22.40
2017-06-11T23:29:03.884Z,22.30
2017-06-11T23:31:37.856Z,22.30
2017-06-11T23:34:12.318Z,22.30
2017-06-11T23:36:48.257Z,22.30
2017-06-11T23:39:22.031Z,22.30
2017-06-11T23:41:56.532Z,22.30
2017-06-11T23:44:30.421Z,22.30
2017-06-11T23:47:04.269Z,22.30
2017-06-11T23:49:37.873Z,22.30
2017-06-11T23:52:11.772Z,22.30
2017-06-11T23:54:46.144Z,22.30
2017-06-11T23:57:20.992Z,22.30
2017-06-11T23:59:54.960Z,22.30
